Time;durP1;ratioP1;P1;durP2;ratioP2;P2;SDS_P1;SDS_P2;PMS_P1;PMS_P2;Temp;Humidity;BMP_temperature;BMP_pressure;BME280_temperature;BME280_humidity;BME280_pressure;Samples;Min_cycle;Max_cycle;Signal;HPM_P1;HPM_P2
2023/10/13 00:01:08;;;;;;;6.23;5.30;;;19.40;99.90;;;;;;4958151;28;20463;-66
2023/10/13 00:03:39;;;;;;;7.63;6.50;;;19.40;99.90;;;;;;4982273;28;20485;-66
2023/10/13 00:06:08;;;;;;;6.97;6.23;;;19.40;99.90;;;;;;4997053;28;21058;-66
2023/10/13 00:08:36;;;;;;;5.70;5.30;;;19.40;99.90;;;;;;4976656;28;20496;-66
2023/10/13 00:11:03;;;;;;;6.07;5.57;;;19.40;99.90;;;;;;4983619;28;20440;-66
2023/10/13 00:13:50;;;;;;;6.20;5.60;;;19.50;99.90;;;;;;4975837;28;20507;-66
2023/10/13 00:16:27;;;;;;;7.03;5.20;;;19.40;99.90;;;;;;4970989;28;20494;-66
2023/10/13 00:18:57;;;;;;;7.20;6.20;;;19.40;99.90;;;;;;4991229;28;20429;-66
2023/10/13 00:21:31;;;;;;;6.90;5.80;;;19.40;99.90;;;;;;5005689;28;20458;-67
2023/10/13 00:24:12;;;;;;;7.20;6.23;;;19.40;99.90;;;;;;4993907;28;20428;-67
2023/10/13 00:26:43;;;;;;;7.43;5.20;;;19.40;99.90;;;;;;4968403;28;20448;-66
2023/10/13 00:31:38;;;;;;;8.87;5.87;;;19.40;99.90;;;;;;4983982;28;20442;-66
2023/10/13 00:39:29;;;;;;;6.30;5.70;;;19.40;99.90;;;;;;4997520;28;20424;-66
2023/10/13 00:41:58;;;;;;;5.80;5.30;;;19.40;99.90;;;;;;4964721;28;20972;-67
2023/10/13 00:44:37;;;;;;;6.27;5.77;;;19.40;99.90;;;;;;4960107;28;20439;-66
2023/10/13 00:47:09;;;;;;;6.53;6.00;;;19.40;99.90;;;;;;4973223;28;20970;-67
2023/10/13 00:49:39;;;;;;;5.90;5.40;;;19.40;99.90;;;;;;4956404;28;20440;-66
2023/10/13 00:52:15;;;;;;;7.13;6.53;;;19.40;99.90;;;;;;4996276;28;20434;-66
2023/10/13 00:54:48;;;;;;;5.87;5.27;;;19.40;99.90;;;;;;5011833;28;20783;-67
2023/10/13 00:57:30;;;;;;;7.43;5.77;;;19.40;99.90;;;;;;4964743;28;20465;-67
2023/10/13 01:02:40;;;;;;;5.60;5.17;;;19.40;99.90;;;;;;4880227;29;20491;-70
2023/10/13 01:05:11;;;;;;;6.20;5.50;;;19.40;99.90;;;;;;4876899;29;20472;-70
2023/10/13 01:07:40;;;;;;;6.37;5.77;;;19.40;99.90;;;;;;4886287;29;20512;-70
2023/10/13 01:10:15;;;;;;;6.30;5.70;;;19.40;99.90;;;;;;4896993;29;20971;-70
2023/10/13 01:12:52;;;;;;;6.23;5.73;;;19.40;99.90;;;;;;4906498;29;20457;-68
2023/10/13 01:15:22;;;;;;;6.50;5.17;;;19.40;99.90;;;;;;4905207;29;20438;-70
2023/10/13 01:17:55;;;;;;;6.70;6.00;;;19.40;99.90;;;;;;4889658;29;20459;-69
2023/10/13 01:20:32;;;;;;;8.10;5.73;;;19.40;99.90;;;;;;4899183;29;20636;-70
2023/10/13 01:23:03;;;;;;;6.30;5.70;;;19.40;99.90;;;;;;4903069;29;20435;-69
2023/10/13 01:25:33;;;;;;;10.30;6.10;;;19.40;99.90;;;;;;4893054;29;20901;-69
2023/10/13 01:28:00;;;;;;;7.53;5.53;;;19.40;99.90;;;;;;4896910;29;20445;-70
2023/10/13 01:30:26;;;;;;;6.93;6.27;;;19.40;99.90;;;;;;4894808;29;20462;-70
2023/10/13 01:32:56;;;;;;;6.20;5.70;;;19.40;99.90;;;;;;4898557;29;20541;-70
2023/10/13 01:35:27;;;;;;;6.43;5.87;;;19.40;99.90;;;;;;4882075;29;20956;-70
2023/10/13 01:37:56;;;;;;;5.90;5.40;;;19.40;99.90;;;;;;4888107;29;20464;-70
2023/10/13 01:40:28;;;;;;;6.10;5.60;;;19.40;99.90;;;;;;4886641;29;20731;-69
2023/10/13 01:42:57;;;;;;;6.83;6.13;;;19.40;99.90;;;;;;4873734;29;20522;-69
2023/10/13 01:45:28;;;;;;;6.00;5.50;;;19.40;99.90;;;;;;4888407;29;20440;-70
2023/10/13 01:47:57;;;;;;;6.03;5.53;;;19.40;99.90;;;;;;4880906;29;20221;-70
2023/10/13 01:50:35;;;;;;;8.40;5.87;;;19.40;99.90;;;;;;4903961;29;20446;-70
2023/10/13 01:53:17;;;;;;;7.23;6.00;;;19.40;99.90;;;;;;4879598;29;20501;-70
2023/10/13 01:55:44;;;;;;;6.60;5.87;;;19.40;99.90;;;;;;4886409;29;20546;-70
2023/10/13 01:58:15;;;;;;;6.07;5.20;;;19.40;99.90;;;;;;4889789;29;20463;-70
2023/10/13 02:00:44;;;;;;;5.87;5.37;;;19.40;99.90;;;;;;4904477;29;20556;-70
2023/10/13 02:03:21;;;;;;;6.30;5.70;;;19.40;99.90;;;;;;4879463;29;20439;-70
2023/10/13 02:05:57;;;;;;;5.67;5.27;;;19.40;99.90;;;;;;4888158;29;21284;-70
2023/10/13 02:08:24;;;;;;;5.87;4.83;;;19.40;99.90;;;;;;4898832;29;20446;-69
2023/10/13 02:10:53;;;;;;;5.90;5.40;;;19.40;99.90;;;;;;4877833;29;20450;-69
2023/10/13 02:13:25;;;;;;;5.90;5.40;;;19.40;99.90;;;;;;4896513;29;20442;-70
2023/10/13 02:15:56;;;;;;;5.53;5.13;;;19.40;99.90;;;;;;4878797;29;20449;-70
2023/10/13 02:18:26;;;;;;;6.20;5.70;;;19.40;99.90;;;;;;4870768;29;20456;-69
2023/10/13 02:21:04;;;;;;;5.57;5.07;;;19.40;99.90;;;;;;4847931;29;20469;-70
2023/10/13 02:23:31;;;;;;;5.90;5.40;;;19.40;99.90;;;;;;4881107;29;20972;-69
2023/10/13 02:26:01;;;;;;;5.50;5.00;;;19.40;99.90;;;;;;4884739;29;20950;-70
2023/10/13 02:28:34;;;;;;;5.90;5.30;;;19.40;99.90;;;;;;4894019;29;20525;-70
2023/10/13 02:31:09;;;;;;;6.70;6.20;;;19.40;99.90;;;;;;4895942;29;20448;-70
2023/10/13 02:33:44;;;;;;;6.90;6.20;;;19.40;99.90;;;;;;4885801;29;20597;-73
2023/10/13 02:36:22;;;;;;;5.60;5.10;;;19.40;99.90;;;;;;4897026;29;20816;-74
2023/10/13 02:38:50;;;;;;;6.30;5.60;;;19.40;99.90;;;;;;4880275;29;21162;-73
2023/10/13 02:41:25;;;;;;;6.20;5.60;;;19.40;99.90;;;;;;4869643;29;20610;-73
2023/10/13 02:43:56;;;;;;;6.00;5.50;;;19.40;99.90;;;;;;4870419;29;20451;-73
2023/10/13 02:46:23;;;;;;;6.50;5.90;;;19.40;99.90;;;;;;4887763;29;20509;-73
2023/10/13 02:48:57;;;;;;;5.80;5.30;;;19.30;99.90;;;;;;4868527;29;20539;-73
2023/10/13 02:51:44;;;;;;;6.17;5.67;;;19.30;99.90;;;;;;4871973;29;21548;-73
2023/10/13 02:54:18;;;;;;;6.53;5.27;;;19.30;99.90;;;;;;4887980;29;20445;-73
2023/10/13 02:56:56;;;;;;;5.90;5.40;;;19.30;99.90;;;;;;4896343;29;20658;-73
2023/10/13 02:59:38;;;;;;;5.80;5.23;;;19.40;99.90;;;;;;4881340;29;20476;-73
2023/10/13 03:02:27;;;;;;;7.07;5.70;;;19.30;99.90;;;;;;4900097;29;20476;-73
2023/10/13 03:05:09;;;;;;;5.90;5.30;;;19.40;99.90;;;;;;4887731;29;20492;-73
2023/10/13 03:07:36;;;;;;;6.30;5.70;;;19.30;99.90;;;;;;4884818;29;21070;-73
2023/10/13 03:10:10;;;;;;;6.37;5.73;;;19.30;99.90;;;;;;4892308;29;21026;-73
2023/10/13 03:12:48;;;;;;;6.20;5.70;;;19.30;99.90;;;;;;4885534;29;20971;-73
2023/10/13 03:15:19;;;;;;;5.80;5.40;;;19.30;99.90;;;;;;4887726;29;20485;-73
2023/10/13 03:17:48;;;;;;;6.10;5.60;;;19.30;99.90;;;;;;4887755;29;20467;-73
2023/10/13 03:20:30;;;;;;;6.60;6.07;;;19.30;99.90;;;;;;4903503;29;20442;-73
2023/10/13 03:22:57;;;;;;;6.23;5.73;;;19.30;99.90;;;;;;4904850;29;20457;-73
2023/10/13 03:33:26;;;;;;;5.93;5.43;;;19.40;99.90;;;;;;4861509;29;20526;-73
2023/10/13 03:35:54;;;;;;;6.40;5.90;;;19.30;99.90;;;;;;4902434;29;20842;-73
2023/10/13 03:38:26;;;;;;;6.00;5.50;;;19.30;99.90;;;;;;4886880;29;20532;-73
2023/10/13 03:41:30;;;;;;;6.30;5.80;;;19.30;99.90;;;;;;4902382;29;20476;-73
2023/10/13 03:43:51;;;;;;;5.00;4.60;;;19.30;99.90;;;;;;4900298;29;20468;-73
2023/10/13 03:46:21;;;;;;;6.17;5.53;;;19.30;99.90;;;;;;4903852;29;20476;-73
2023/10/13 03:48:54;;;;;;;6.70;6.10;;;19.30;99.90;;;;;;4874400;29;20441;-73
2023/10/13 03:51:30;;;;;;;6.00;5.53;;;19.30;99.90;;;;;;4904758;29;20436;-73
2023/10/13 03:53:56;;;;;;;5.93;5.43;;;19.30;99.90;;;;;;4905117;29;20436;-73
2023/10/13 03:56:28;;;;;;;6.20;5.67;;;19.40;99.90;;;;;;4886941;29;20471;-73
2023/10/13 03:58:59;;;;;;;6.20;5.60;;;19.30;99.90;;;;;;4903777;29;20436;-73
2023/10/13 04:01:36;;;;;;;6.13;5.60;;;19.30;99.90;;;;;;4897083;29;21090;-73
2023/10/13 04:04:11;;;;;;;8.50;4.97;;;19.30;99.90;;;;;;4896415;29;20444;-73
2023/10/13 04:12:21;;;;;;;7.13;5.87;;;19.30;99.90;;;;;;4899688;29;20449;-73
2023/10/13 04:17:40;;;;;;;6.60;5.90;;;19.30;99.90;;;;;;4900997;29;20489;-73
2023/10/13 04:33:35;;;;;;;7.50;6.00;;;19.30;99.90;;;;;;4886668;29;20490;-72
2023/10/13 04:36:45;;;;;;;8.50;6.73;;;19.30;99.90;;;;;;4875377;29;20429;-72
2023/10/13 04:41:57;;;;;;;6.13;5.53;;;19.30;99.90;;;;;;4887819;29;20509;-72
2023/10/13 04:49:35;;;;;;;5.90;5.30;;;19.30;99.90;;;;;;4895721;29;20497;-72
2023/10/13 04:57:34;;;;;;;5.97;5.47;;;19.30;99.90;;;;;;4901726;29;20458;-72
2023/10/13 05:03:01;;;;;;;6.83;6.23;;;19.30;99.90;;;;;;4914165;29;21131;-72
2023/10/13 05:44:55;;;;;;;6.53;5.73;;;19.30;99.90;;;;;;4911179;29;20450;-73
2023/10/13 05:50:13;;;;;;;7.17;6.47;;;19.30;99.90;;;;;;4900583;29;20519;-72
2023/10/13 06:29:00;;;;;;;7.50;5.57;;;19.30;99.90;;;;;;4906272;29;20428;-72
2023/10/13 06:31:35;;;;;;;9.23;5.60;;;19.30;99.90;;;;;;4892997;29;20963;-73
2023/10/13 06:34:04;;;;;;;6.67;5.97;;;19.30;99.90;;;;;;4901720;29;20464;-73
2023/10/13 06:36:30;;;;;;;6.80;6.10;;;19.30;99.90;;;;;;4898498;29;20461;-74
2023/10/13 06:41:43;;;;;;;7.90;5.60;;;19.30;99.90;;;;;;4902295;29;21015;-74
2023/10/13 06:44:15;;;;;;;7.27;5.60;;;19.30;99.90;;;;;;4903504;29;20434;-74
2023/10/13 06:46:44;;;;;;;6.70;5.53;;;19.30;99.90;;;;;;4887022;29;20459;-73
2023/10/13 06:49:12;;;;;;;7.87;6.20;;;19.30;99.90;;;;;;4887201;29;20430;-73
2023/10/13 06:51:42;;;;;;;6.33;5.83;;;19.30;99.90;;;;;;4885952;29;20438;-73
2023/10/13 06:54:11;;;;;;;6.03;5.30;;;19.30;99.90;;;;;;4890116;29;21028;-74
2023/10/13 06:56:41;;;;;;;9.23;5.77;;;19.30;99.90;;;;;;4903793;29;21205;-74
2023/10/13 06:59:10;;;;;;;10.30;5.73;;;19.30;99.90;;;;;;4902051;29;20476;-73
2023/10/13 07:01:38;;;;;;;6.10;4.80;;;19.30;99.90;;;;;;4885567;29;21315;-73
2023/10/13 07:04:12;;;;;;;7.57;5.77;;;19.30;99.90;;;;;;4877524;29;20513;-73
2023/10/13 07:06:48;;;;;;;7.40;5.00;;;19.30;99.90;;;;;;4886213;29;20460;-73
2023/10/13 07:09:39;;;;;;;6.03;5.50;;;19.30;99.90;;;;;;4902612;29;20732;-73
2023/10/13 07:12:22;;;;;;;6.13;5.53;;;19.30;99.90;;;;;;4885874;29;20464;-73
2023/10/13 07:14:51;;;;;;;6.93;5.20;;;19.30;99.90;;;;;;4886010;29;21080;-73
2023/10/13 07:17:23;;;;;;;6.13;5.53;;;19.30;99.90;;;;;;4891870;29;20499;-73
2023/10/13 07:19:55;;;;;;;6.03;5.33;;;19.30;99.90;;;;;;4906925;29;20475;-73
2023/10/13 07:22:27;;;;;;;7.57;6.00;;;19.30;99.90;;;;;;4911170;29;20470;-73
2023/10/13 07:24:53;;;;;;;9.43;6.53;;;19.30;99.90;;;;;;4893687;29;20541;-73
2023/10/13 07:27:23;;;;;;;7.40;5.70;;;19.30;99.90;;;;;;4903510;29;20455;-73
2023/10/13 07:32:37;;;;;;;7.40;6.03;;;19.30;99.90;;;;;;4901599;29;20467;-73
2023/10/13 07:35:11;;;;;;;7.57;6.53;;;19.30;99.90;;;;;;4902287;29;20436;-73
2023/10/13 07:37:41;;;;;;;7.07;5.90;;;19.30;99.90;;;;;;4885150;29;20522;-73
2023/10/13 07:40:27;;;;;;;8.13;6.17;;;19.30;99.90;;;;;;4885342;29;21027;-73
2023/10/13 07:43:00;;;;;;;6.57;5.93;;;19.30;99.90;;;;;;4869396;29;21036;-73
2023/10/13 07:45:36;;;;;;;7.43;6.50;;;19.40;99.90;;;;;;4901423;29;20433;-74
2023/10/13 07:48:12;;;;;;;5.63;5.20;;;19.30;99.90;;;;;;4902723;29;20451;-73
2023/10/13 07:50:39;;;;;;;6.33;5.50;;;19.30;99.90;;;;;;4900652;29;20525;-73
2023/10/13 07:53:18;;;;;;;8.80;6.07;;;19.30;99.90;;;;;;4900780;29;20435;-73
2023/10/13 07:55:46;;;;;;;6.30;5.70;;;19.30;99.90;;;;;;4902368;29;20436;-73
2023/10/13 07:58:13;;;;;;;6.83;5.90;;;19.30;99.90;;;;;;4902419;29;20842;-74
2023/10/13 08:06:06;;;;;;;7.50;6.90;;;19.30;99.90;;;;;;4902803;29;20445;-74
2023/10/13 08:08:37;;;;;;;6.80;6.20;;;19.40;99.90;;;;;;4899726;29;20546;-74
2023/10/13 08:13:58;;;;;;;5.87;5.37;;;19.40;99.90;;;;;;4886583;29;20454;-73
2023/10/13 08:19:17;;;;;;;9.67;6.53;;;19.30;99.90;;;;;;4903033;29;20436;-74
2023/10/13 08:21:58;;;;;;;7.60;6.83;;;19.40;99.90;;;;;;4907695;29;20467;-73
2023/10/13 08:24:55;;;;;;;9.80;6.40;;;19.40;99.90;;;;;;4907165;29;20457;-73
2023/10/13 08:35:10;;;;;;;9.17;6.60;;;19.40;99.90;;;;;;4906241;29;20443;-73
2023/10/13 08:40:24;;;;;;;8.60;6.90;;;19.50;99.90;;;;;;4890060;29;20448;-74
2023/10/13 08:43:11;;;;;;;8.37;6.33;;;19.50;99.90;;;;;;4906065;29;20434;-73
2023/10/13 08:56:33;;;;;;;6.63;5.83;;;19.50;99.90;;;;;;4888229;29;20794;-74
2023/10/13 08:59:05;;;;;;;7.13;5.93;;;19.50;99.90;;;;;;4903143;29;20432;-73
2023/10/13 09:01:46;;;;;;;6.07;5.47;;;19.50;99.90;;;;;;4885868;29;20489;-74
2023/10/13 09:07:09;;;;;;;8.70;6.10;;;19.60;99.90;;;;;;4905525;29;20557;-74
2023/10/13 09:15:07;;;;;;;9.17;5.90;;;19.60;99.90;;;;;;4887914;29;20862;-73
2023/10/13 09:17:52;;;;;;;7.90;5.73;;;19.60;99.90;;;;;;4900376;29;20460;-74
2023/10/13 09:20:35;;;;;;;7.70;5.50;;;19.60;99.90;;;;;;4903567;29;20524;-73
2023/10/13 09:23:09;;;;;;;11.03;6.50;;;19.60;99.90;;;;;;4896744;29;20446;-74
2023/10/13 09:25:58;;;;;;;7.87;5.83;;;19.70;99.90;;;;;;4887821;29;21008;-73
2023/10/13 09:28:28;;;;;;;9.03;5.73;;;19.70;99.90;;;;;;4882295;29;20451;-74
2023/10/13 09:30:58;;;;;;;8.23;6.30;;;19.70;99.90;;;;;;4888436;29;20447;-76
2023/10/13 09:33:47;;;;;;;11.70;6.73;;;19.70;99.90;;;;;;4871680;29;20427;-72
2023/10/13 09:36:17;;;;;;;7.33;5.80;;;19.70;99.90;;;;;;4903253;29;20504;-73
2023/10/13 09:39:10;;;;;;;14.13;7.07;;;19.70;99.90;;;;;;4902486;29;20514;-72
2023/10/13 09:41:32;;;;;;;9.90;6.93;;;19.70;99.90;;;;;;4886590;29;20481;-72
2023/10/13 09:43:58;;;;;;;8.10;6.13;;;19.70;99.90;;;;;;4903837;29;20768;-72
2023/10/13 09:46:28;;;;;;;10.40;6.80;;;19.80;99.90;;;;;;4887674;29;20464;-73
2023/10/13 09:49:14;;;;;;;7.77;6.93;;;19.70;99.90;;;;;;4871434;29;20447;-72
2023/10/13 09:51:45;;;;;;;12.43;7.33;;;19.80;99.90;;;;;;4904395;29;20430;-73
2023/10/13 09:54:34;;;;;;;10.57;6.17;;;19.80;99.90;;;;;;4887493;29;20441;-73
2023/10/13 09:57:16;;;;;;;8.20;6.20;;;19.80;99.90;;;;;;4904729;29;20459;-73
2023/10/13 09:59:52;;;;;;;15.23;7.73;;;19.80;99.90;;;;;;4905159;29;20456;-73
2023/10/13 10:02:28;;;;;;;9.40;7.50;;;19.90;99.90;;;;;;4903644;29;21055;-73
2023/10/13 10:05:21;;;;;;;10.43;7.13;;;19.90;99.90;;;;;;4887446;29;20441;-72
2023/10/13 10:08:02;;;;;;;11.90;7.00;;;19.90;99.90;;;;;;4904739;29;20498;-72
2023/10/13 10:10:56;;;;;;;7.77;6.57;;;19.90;99.90;;;;;;4872559;29;20479;-73
2023/10/13 10:13:46;;;;;;;8.60;7.70;;;20.00;99.90;;;;;;4971828;23;20593;-73
2023/10/13 10:16:27;;;;;;;9.23;7.90;;;20.00;99.90;;;;;;4924490;29;20442;-73
2023/10/13 10:19:07;;;;;;;12.30;7.70;;;20.00;99.90;;;;;;4940567;29;20422;-73
2023/10/13 10:21:36;;;;;;;13.30;7.87;;;20.00;99.90;;;;;;4913532;29;20472;-73
2023/10/13 10:24:08;;;;;;;11.13;7.27;;;20.00;99.90;;;;;;4924574;29;20821;-74
2023/10/13 10:26:51;;;;;;;11.77;8.03;;;20.00;99.90;;;;;;4924341;29;20452;-73
2023/10/13 10:29:17;;;;;;;10.17;8.20;;;20.10;99.90;;;;;;4918163;29;21083;-73
2023/10/13 10:31:45;;;;;;;11.20;9.70;;;20.10;99.90;;;;;;4906863;29;20450;-72
2023/10/13 10:34:22;;;;;;;12.47;8.27;;;20.10;99.90;;;;;;4915935;29;20440;-73
2023/10/13 10:36:57;;;;;;;9.90;8.40;;;20.10;99.90;;;;;;4940087;29;20488;-73
2023/10/13 10:39:44;;;;;;;8.57;7.77;;;20.20;99.90;;;;;;4895753;29;20440;-73
2023/10/13 10:42:32;;;;;;;10.73;9.10;;;20.20;99.90;;;;;;4934706;28;20525;-73
2023/10/13 10:45:05;;;;;;;12.63;8.77;;;20.20;99.90;;;;;;4933493;29;20854;-73
2023/10/13 10:47:32;;;;;;;10.60;9.57;;;20.20;99.90;;;;;;4909380;29;20462;-73
2023/10/13 10:52:57;;;;;;;11.30;9.87;;;20.20;99.90;;;;;;4913209;29;20556;-77
2023/10/13 10:55:28;;;;;;;11.77;9.60;;;20.20;99.90;;;;;;4937025;29;20448;-73
2023/10/13 10:58:01;;;;;;;11.10;8.60;;;20.20;99.90;;;;;;4941949;29;20923;-72
2023/10/13 11:00:45;;;;;;;12.00;9.83;;;20.20;99.90;;;;;;4941976;29;20454;-73
2023/10/13 11:03:15;;;;;;;10.47;8.50;;;20.20;99.90;;;;;;4905099;29;20447;-73
2023/10/13 11:05:50;;;;;;;14.73;9.83;;;20.30;99.90;;;;;;4913568;29;20429;-74
2023/10/13 11:08:31;;;;;;;11.30;9.73;;;20.30;99.90;;;;;;4924950;29;20474;-73
2023/10/13 11:11:01;;;;;;;11.93;9.00;;;20.30;99.90;;;;;;4909588;29;20469;-76
2023/10/13 11:13:31;;;;;;;11.60;9.00;;;20.30;99.90;;;;;;4924941;29;20826;-74
2023/10/13 11:15:58;;;;;;;15.40;10.00;;;20.30;99.90;;;;;;4909698;29;20441;-73
2023/10/13 11:18:40;;;;;;;11.13;9.73;;;20.30;99.90;;;;;;4907955;29;20455;-74
2023/10/13 11:21:11;;;;;;;10.90;9.73;;;20.30;99.90;;;;;;4922362;29;20577;-74
2023/10/13 11:23:39;;;;;;;13.67;8.83;;;20.30;99.90;;;;;;4922287;29;20466;-74
2023/10/13 11:26:07;;;;;;;13.03;10.10;;;20.40;99.90;;;;;;4974993;23;20590;-75
2023/10/13 11:28:37;;;;;;;13.93;9.50;;;20.40;99.90;;;;;;4949813;28;20561;-75
2023/10/13 11:31:10;;;;;;;15.57;9.50;;;20.40;99.90;;;;;;4926672;28;20432;-74
2023/10/13 11:33:46;;;;;;;11.50;10.30;;;20.40;99.90;;;;;;4935168;29;21308;-75
2023/10/13 11:36:18;;;;;;;15.03;9.70;;;20.40;99.90;;;;;;4935704;29;20932;-75
2023/10/13 11:38:49;;;;;;;12.70;9.50;;;20.40;99.90;;;;;;4940800;28;20471;-74
2023/10/13 11:41:21;;;;;;;10.57;9.43;;;20.40;99.90;;;;;;4921355;29;20471;-74
2023/10/13 11:43:52;;;;;;;15.93;10.47;;;20.40;99.90;;;;;;4907554;29;20457;-75
2023/10/13 11:51:47;;;;;;;13.20;8.90;;;20.40;99.90;;;;;;4924361;28;20439;-76
2023/10/13 11:54:19;;;;;;;11.47;9.20;;;20.50;99.90;;;;;;4939850;28;20469;-78
2023/10/13 11:56:48;;;;;;;14.93;10.13;;;20.50;99.90;;;;;;4921215;28;20445;-77
2023/10/13 11:59:24;;;;;;;12.43;9.47;;;20.50;99.90;;;;;;4929668;29;20429;-78
2023/10/13 12:07:45;;;;;;;10.90;8.87;;;20.50;99.90;;;;;;4948773;28;20463;-75
2023/10/13 12:10:32;;;;;;;13.47;8.30;;;20.60;99.90;;;;;;4933661;28;20884;-76
2023/10/13 12:13:05;;;;;;;10.83;8.73;;;20.60;99.90;;;;;;4923180;28;21007;-75
2023/10/13 12:15:51;;;;;;;15.60;8.77;;;20.60;99.90;;;;;;4919011;29;20445;-74
2023/10/13 12:18:20;;;;;;;14.10;8.87;;;20.60;99.90;;;;;;4936183;28;21093;-74
2023/10/13 12:20:49;;;;;;;12.10;8.07;;;20.60;99.90;;;;;;4963134;28;20448;-75
2023/10/13 12:23:17;;;;;;;11.67;8.67;;;20.60;99.90;;;;;;4927429;29;21044;-75
2023/10/13 12:25:54;;;;;;;14.63;8.57;;;20.70;99.90;;;;;;4922968;28;20441;-77
2023/10/13 12:28:26;;;;;;;15.30;9.37;;;20.70;99.90;;;;;;4927868;29;20493;-78
2023/10/13 12:31:01;;;;;;;12.57;8.40;;;20.70;99.90;;;;;;4948195;28;20831;-78
2023/10/13 12:33:42;;;;;;;13.87;8.70;;;20.70;99.90;;;;;;4957349;28;20563;-77
2023/10/13 12:55:09;;;;;;;17.93;8.67;;;20.80;99.90;;;;;;4897643;29;20484;-74
2023/10/13 12:57:43;;;;;;;15.00;8.10;;;20.80;99.90;;;;;;4930468;29;20470;-74
2023/10/13 13:00:20;;;;;;;15.90;8.67;;;20.80;99.90;;;;;;4945008;28;21084;-74
2023/10/13 13:02:47;;;;;;;16.30;8.00;;;20.80;99.90;;;;;;4927529;29;20482;-74
2023/10/13 13:05:15;;;;;;;12.90;8.27;;;20.80;99.90;;;;;;4915741;28;20429;-74
2023/10/13 13:07:47;;;;;;;16.90;7.97;;;20.80;99.90;;;;;;4928601;28;20487;-74
2023/10/13 13:10:14;;;;;;;10.80;8.00;;;20.90;99.90;;;;;;4927103;29;20457;-74
2023/10/13 13:12:41;;;;;;;11.83;8.67;;;20.90;99.90;;;;;;4945008;28;20454;-74
2023/10/13 13:15:11;;;;;;;13.20;8.10;;;20.90;99.90;;;;;;4951955;28;20526;-74
2023/10/13 13:17:39;;;;;;;18.37;9.20;;;20.90;99.90;;;;;;4944234;28;21260;-74
2023/10/13 13:20:29;;;;;;;15.17;8.17;;;20.90;99.90;;;;;;4922461;28;20625;-74
2023/10/13 13:22:55;;;;;;;12.97;9.47;;;20.90;99.90;;;;;;4944095;28;20470;-74
2023/10/13 13:25:29;;;;;;;11.47;7.73;;;20.90;99.90;;;;;;4943516;28;20445;-74
2023/10/13 13:27:57;;;;;;;17.37;8.60;;;20.90;99.90;;;;;;4926376;29;20442;-74
2023/10/13 13:30:34;;;;;;;13.60;7.77;;;20.90;99.90;;;;;;4925827;29;20469;-74
2023/10/13 13:33:10;;;;;;;10.13;7.17;;;20.90;99.90;;;;;;4945425;28;20502;-74
2023/10/13 13:35:48;;;;;;;10.63;8.00;;;21.00;99.90;;;;;;4926561;28;20452;-74
2023/10/13 13:38:22;;;;;;;13.47;8.50;;;20.90;99.90;;;;;;4943565;29;21020;-75
2023/10/13 13:40:53;;;;;;;11.03;8.33;;;21.00;99.90;;;;;;4943529;29;20510;-74
2023/10/13 13:43:41;;;;;;;15.57;7.50;;;21.00;99.90;;;;;;4941290;28;20494;-75
2023/10/13 13:46:10;;;;;;;15.80;8.00;;;21.00;99.90;;;;;;4933536;29;20422;-74
2023/10/13 13:48:40;;;;;;;11.90;6.90;;;21.00;99.90;;;;;;4926255;29;20430;-74
2023/10/13 13:51:19;;;;;;;15.83;8.77;;;21.00;99.90;;;;;;4933777;29;20462;-74
2023/10/13 13:53:47;;;;;;;19.20;8.50;;;21.00;99.90;;;;;;4934262;29;20470;-74
2023/10/13 13:56:16;;;;;;;16.57;8.47;;;21.00;99.90;;;;;;4938665;28;20441;-74
2023/10/13 13:58:43;;;;;;;18.00;7.60;;;21.00;99.90;;;;;;4946650;28;21248;-73
2023/10/13 14:01:26;;;;;;;15.10;8.43;;;21.00;99.90;;;;;;4914540;28;21083;-73
2023/10/13 14:04:02;;;;;;;11.30;7.37;;;21.00;99.90;;;;;;4950450;28;21036;-76
2023/10/13 14:06:32;;;;;;;14.90;8.33;;;21.00;99.90;;;;;;4920581;29;20456;-76
2023/10/13 14:09:02;;;;;;;15.80;7.27;;;21.00;99.90;;;;;;4906890;28;20504;-73
2023/10/13 14:16:51;;;;;;;14.20;7.90;;;21.00;99.80;;;;;;4942370;28;21150;-73
2023/10/13 14:19:27;;;;;;;18.40;9.00;;;21.10;99.80;;;;;;4950660;28;21214;-73
2023/10/13 14:21:53;;;;;;;14.50;7.97;;;21.00;99.70;;;;;;4941381;28;21144;-73
2023/10/13 14:24:32;;;;;;;14.30;8.53;;;21.10;99.70;;;;;;4942325;29;20432;-73
2023/10/13 14:27:18;;;;;;;15.93;9.00;;;21.10;99.70;;;;;;4924880;29;21315;-73
2023/10/13 14:29:52;;;;;;;11.40;8.20;;;21.00;99.60;;;;;;4908964;29;20465;-74
2023/10/13 14:32:19;;;;;;;11.90;7.40;;;21.10;99.60;;;;;;4948241;28;20797;-73
2023/10/13 14:34:48;;;;;;;17.30;8.70;;;21.10;99.50;;;;;;4924936;29;20446;-73
2023/10/13 14:37:21;;;;;;;19.33;8.47;;;21.00;99.40;;;;;;4924697;29;21019;-74
2023/10/13 14:39:49;;;;;;;11.60;7.30;;;21.10;99.50;;;;;;4893646;29;20537;-74
2023/10/13 14:42:22;;;;;;;11.70;8.17;;;21.10;99.40;;;;;;4909703;29;20477;-71
2023/10/13 14:44:55;;;;;;;13.87;6.87;;;21.10;99.40;;;;;;4925681;29;20517;-70
2023/10/13 14:47:47;;;;;;;17.53;8.50;;;21.10;99.30;;;;;;4924170;29;20547;-71
2023/10/13 14:50:20;;;;;;;12.37;8.10;;;21.10;99.20;;;;;;4941612;29;20427;-72
2023/10/13 14:52:51;;;;;;;15.53;8.30;;;21.00;99.10;;;;;;4909012;29;20443;-72
2023/10/13 14:55:21;;;;;;;20.83;7.93;;;21.10;99.00;;;;;;4908912;29;20449;-72
2023/10/13 14:57:49;;;;;;;10.47;7.07;;;21.10;99.00;;;;;;4925572;29;20457;-73
2023/10/13 15:00:24;;;;;;;10.03;7.27;;;21.10;99.00;;;;;;4920534;29;20482;-73
2023/10/13 15:02:55;;;;;;;11.13;7.17;;;21.10;98.90;;;;;;4917522;29;21196;-72
2023/10/13 15:05:21;;;;;;;15.10;8.13;;;21.10;98.90;;;;;;4916320;29;20447;-72
2023/10/13 15:07:48;;;;;;;15.00;7.60;;;21.10;98.80;;;;;;4924677;29;20703;-71
2023/10/13 15:10:15;;;;;;;11.00;7.27;;;21.10;98.80;;;;;;4923472;29;20455;-73
2023/10/13 15:12:44;;;;;;;14.40;7.47;;;21.10;98.80;;;;;;4906158;29;20526;-73
2023/10/13 15:15:13;;;;;;;10.00;7.73;;;21.10;98.70;;;;;;4905501;29;20474;-72
2023/10/13 15:17:43;;;;;;;13.93;7.60;;;21.10;98.60;;;;;;4921507;29;20474;-72
2023/10/13 15:20:10;;;;;;;12.70;7.87;;;21.10;98.70;;;;;;4920570;29;20431;-73
2023/10/13 15:22:37;;;;;;;14.10;8.00;;;21.10;98.60;;;;;;4935764;29;21082;-72
2023/10/13 15:27:58;;;;;;;13.00;7.67;;;21.10;98.50;;;;;;4924502;29;20446;-74
2023/10/13 15:30:30;;;;;;;11.67;7.50;;;21.10;98.50;;;;;;4925132;29;20788;-72
2023/10/13 15:33:00;;;;;;;13.50;7.77;;;21.10;98.40;;;;;;4940885;29;20431;-73
2023/10/13 15:35:28;;;;;;;12.77;8.17;;;21.10;98.30;;;;;;4924133;29;20461;-73
2023/10/13 15:37:57;;;;;;;11.07;7.73;;;21.10;98.30;;;;;;4941492;29;20438;-74
2023/10/13 15:40:23;;;;;;;17.80;8.00;;;21.10;98.30;;;;;;4925107;29;20442;-73
2023/10/13 15:42:59;;;;;;;11.77;7.20;;;21.10;98.20;;;;;;4941183;29;20941;-73
2023/10/13 15:45:38;;;;;;;12.30;8.40;;;21.10;98.20;;;;;;4907563;29;20429;-74
2023/10/13 15:48:07;;;;;;;8.90;6.70;;;21.10;98.10;;;;;;4942694;29;20450;-73
2023/10/13 15:50:40;;;;;;;9.80;7.40;;;21.10;98.10;;;;;;4928698;29;20442;-73
2023/10/13 15:53:08;;;;;;;9.53;7.20;;;21.10;98.10;;;;;;4908025;29;20477;-74
2023/10/13 15:55:39;;;;;;;10.60;7.10;;;21.10;98.00;;;;;;4921651;29;21002;-74
2023/10/13 15:58:08;;;;;;;9.43;6.70;;;21.10;98.00;;;;;;4911780;28;20431;-73
2023/10/13 16:00:37;;;;;;;10.90;7.23;;;21.10;97.90;;;;;;4928458;29;20868;-73
2023/10/13 16:03:10;;;;;;;13.70;7.27;;;21.10;97.90;;;;;;4924671;29;20476;-73
2023/10/13 16:05:40;;;;;;;14.57;7.40;;;21.10;97.90;;;;;;4907843;29;20993;-73
2023/10/13 16:08:11;;;;;;;14.03;8.30;;;21.10;97.90;;;;;;4947939;28;20449;-74
2023/10/13 16:10:38;;;;;;;9.67;6.80;;;21.10;97.90;;;;;;4938730;28;20585;-74
2023/10/13 16:13:07;;;;;;;9.60;8.30;;;21.10;97.80;;;;;;4923133;29;20864;-73
2023/10/13 16:15:40;;;;;;;10.30;7.40;;;21.10;97.90;;;;;;4924321;29;20569;-75
2023/10/13 16:18:07;;;;;;;10.27;7.17;;;21.10;97.90;;;;;;4917913;29;21306;-74
2023/10/13 16:20:39;;;;;;;10.10;8.20;;;21.10;97.90;;;;;;4930525;28;20481;-73
2023/10/13 16:23:09;;;;;;;11.90;7.50;;;21.10;97.80;;;;;;4913184;28;20475;-73
2023/10/13 16:25:37;;;;;;;8.43;7.40;;;21.10;97.80;;;;;;4910588;29;20516;-75
2023/10/13 16:28:04;;;;;;;10.10;7.40;;;21.10;97.80;;;;;;4927760;29;20448;-74
2023/10/13 16:30:30;;;;;;;10.60;8.00;;;21.10;97.70;;;;;;4924724;28;20203;-76
2023/10/13 16:32:56;;;;;;;9.80;7.77;;;21.10;97.70;;;;;;4942905;28;20443;-73
2023/10/13 16:35:22;;;;;;;12.87;8.17;;;21.10;97.60;;;;;;4932790;28;20439;-73
2023/10/13 16:37:54;;;;;;;22.63;8.60;;;21.10;96.10;;;;;;4962612;28;20976;-74
2023/10/13 16:40:33;;;;;;;15.17;6.80;;;21.10;96.00;;;;;;4963549;28;20441;-73
2023/10/13 16:43:00;;;;;;;14.43;7.20;;;21.10;95.70;;;;;;4967845;28;20868;-72
2023/10/13 16:45:31;;;;;;;10.63;8.20;;;21.10;95.20;;;;;;4934404;28;20422;-74
2023/10/13 16:47:57;;;;;;;19.63;8.20;;;21.20;95.00;;;;;;4949350;28;20503;-74
2023/10/13 16:50:23;;;;;;;15.07;8.90;;;21.20;94.80;;;;;;4967199;28;20414;-73
2023/10/13 16:52:50;;;;;;;10.03;7.50;;;21.30;94.50;;;;;;4949253;28;20471;-74
2023/10/13 16:55:20;;;;;;;12.53;7.67;;;21.30;94.30;;;;;;4949886;28;20439;-73